sensor_id;sensor_type;location;lat;lon;timestamp;P1;durP1;ratioP1;P2;durP2;ratioP2
11504;SDS011;5809;53.262;10.408;2022-11-20T00:00:22;7.97;;;5.17;;
11504;SDS011;5809;53.262;10.408;2022-11-20T00:02:49;8.03;;;5.13;;
11504;SDS011;5809;53.262;10.408;2022-11-20T00:05:16;6.13;;;5.07;;
11504;SDS011;5809;53.262;10.408;2022-11-20T00:07:44;8.77;;;6.13;;
11504;SDS011;5809;53.262;10.408;2022-11-20T00:10:11;6.97;;;5.33;;
11504;SDS011;5809;53.262;10.408;2022-11-20T00:12:38;6.30;;;5.40;;
11504;SDS011;5809;53.262;10.408;2022-11-20T00:15:06;6.70;;;5.30;;
11504;SDS011;5809;53.262;10.408;2022-11-20T00:17:34;7.83;;;6.40;;
11504;SDS011;5809;53.262;10.408;2022-11-20T00:20:01;7.60;;;6.03;;
11504;SDS011;5809;53.262;10.408;2022-11-20T00:22:28;9.03;;;5.80;;
11504;SDS011;5809;53.262;10.408;2022-11-20T00:24:55;9.67;;;6.13;;
11504;SDS011;5809;53.262;10.408;2022-11-20T00:27:23;9.33;;;6.27;;
11504;SDS011;5809;53.262;10.408;2022-11-20T00:29:50;7.80;;;5.77;;
11504;SDS011;5809;53.262;10.408;2022-11-20T00:32:17;9.77;;;6.47;;
11504;SDS011;5809;53.262;10.408;2022-11-20T00:34:45;7.87;;;6.13;;
11504;SDS011;5809;53.262;10.408;2022-11-20T00:37:13;8.27;;;6.43;;
11504;SDS011;5809;53.262;10.408;2022-11-20T00:39:39;8.30;;;6.03;;
11504;SDS011;5809;53.262;10.408;2022-11-20T00:42:07;11.67;;;7.30;;
11504;SDS011;5809;53.262;10.408;2022-11-20T00:44:34;10.33;;;7.67;;
11504;SDS011;5809;53.262;10.408;2022-11-20T00:47:01;8.53;;;7.13;;
11504;SDS011;5809;53.262;10.408;2022-11-20T00:49:28;9.40;;;7.53;;
11504;SDS011;5809;53.262;10.408;2022-11-20T00:51:56;9.47;;;7.40;;
11504;SDS011;5809;53.262;10.408;2022-11-20T00:54:23;10.30;;;7.73;;
11504;SDS011;5809;53.262;10.408;2022-11-20T00:56:52;8.63;;;7.37;;
11504;SDS011;5809;53.262;10.408;2022-11-20T00:59:19;9.77;;;7.73;;
11504;SDS011;5809;53.262;10.408;2022-11-20T01:01:46;8.60;;;7.60;;
11504;SDS011;5809;53.262;10.408;2022-11-20T01:04:13;11.20;;;7.53;;
11504;SDS011;5809;53.262;10.408;2022-11-20T01:06:40;10.03;;;7.77;;
11504;SDS011;5809;53.262;10.408;2022-11-20T01:09:10;9.43;;;7.60;;
11504;SDS011;5809;53.262;10.408;2022-11-20T01:11:38;8.97;;;7.93;;
11504;SDS011;5809;53.262;10.408;2022-11-20T01:14:06;8.63;;;7.10;;
11504;SDS011;5809;53.262;10.408;2022-11-20T01:16:37;9.30;;;7.83;;
11504;SDS011;5809;53.262;10.408;2022-11-20T01:19:05;9.13;;;7.63;;
11504;SDS011;5809;53.262;10.408;2022-11-20T01:21:34;9.07;;;7.50;;
11504;SDS011;5809;53.262;10.408;2022-11-20T01:24:03;9.63;;;7.03;;
11504;SDS011;5809;53.262;10.408;2022-11-20T01:26:35;8.60;;;7.07;;
11504;SDS011;5809;53.262;10.408;2022-11-20T01:29:02;9.27;;;7.20;;
11504;SDS011;5809;53.262;10.408;2022-11-20T01:31:31;11.50;;;6.97;;
11504;SDS011;5809;53.262;10.408;2022-11-20T01:33:59;10.33;;;6.97;;
11504;SDS011;5809;53.262;10.408;2022-11-20T01:36:27;8.23;;;7.07;;
11504;SDS011;5809;53.262;10.408;2022-11-20T01:38:55;8.43;;;7.07;;
11504;SDS011;5809;53.262;10.408;2022-11-20T01:41:23;7.33;;;6.50;;
11504;SDS011;5809;53.262;10.408;2022-11-20T01:44:10;9.27;;;6.90;;
11504;SDS011;5809;53.262;10.408;2022-11-20T01:46:40;7.50;;;6.50;;
11504;SDS011;5809;53.262;10.408;2022-11-20T01:49:14;9.03;;;7.00;;
11504;SDS011;5809;53.262;10.408;2022-11-20T01:51:44;8.33;;;6.57;;
11504;SDS011;5809;53.262;10.408;2022-11-20T01:54:17;9.93;;;6.50;;
11504;SDS011;5809;53.262;10.408;2022-11-20T01:56:48;8.53;;;6.50;;
11504;SDS011;5809;53.262;10.408;2022-11-20T01:59:22;9.27;;;6.87;;
11504;SDS011;5809;53.262;10.408;2022-11-20T02:01:50;9.13;;;6.77;;
11504;SDS011;5809;53.262;10.408;2022-11-20T02:04:17;10.63;;;6.87;;
11504;SDS011;5809;53.262;10.408;2022-11-20T02:06:46;9.50;;;7.13;;
11504;SDS011;5809;53.262;10.408;2022-11-20T02:09:16;8.00;;;6.97;;
11504;SDS011;5809;53.262;10.408;2022-11-20T02:11:43;10.63;;;6.93;;
11504;SDS011;5809;53.262;10.408;2022-11-20T02:14:10;8.53;;;6.67;;
11504;SDS011;5809;53.262;10.408;2022-11-20T02:16:39;8.47;;;6.73;;
11504;SDS011;5809;53.262;10.408;2022-11-20T02:19:13;10.47;;;7.73;;
11504;SDS011;5809;53.262;10.408;2022-11-20T02:21:45;11.10;;;7.07;;
11504;SDS011;5809;53.262;10.408;2022-11-20T02:24:16;10.83;;;7.23;;
11504;SDS011;5809;53.262;10.408;2022-11-20T02:26:46;8.97;;;7.33;;
11504;SDS011;5809;53.262;10.408;2022-11-20T02:29:16;9.50;;;7.10;;
11504;SDS011;5809;53.262;10.408;2022-11-20T02:31:45;8.53;;;7.50;;
11504;SDS011;5809;53.262;10.408;2022-11-20T02:34:13;11.47;;;7.43;;
11504;SDS011;5809;53.262;10.408;2022-11-20T02:36:40;9.70;;;7.30;;
11504;SDS011;5809;53.262;10.408;2022-11-20T02:39:08;8.40;;;7.50;;
11504;SDS011;5809;53.262;10.408;2022-11-20T02:41:38;9.53;;;7.03;;
11504;SDS011;5809;53.262;10.408;2022-11-20T02:44:05;8.60;;;6.97;;
11504;SDS011;5809;53.262;10.408;2022-11-20T02:46:32;7.97;;;6.93;;
11504;SDS011;5809;53.262;10.408;2022-11-20T02:49:00;10.27;;;7.23;;
11504;SDS011;5809;53.262;10.408;2022-11-20T02:51:28;8.63;;;6.80;;
11504;SDS011;5809;53.262;10.408;2022-11-20T02:53:56;10.03;;;7.23;;
11504;SDS011;5809;53.262;10.408;2022-11-20T02:56:23;8.80;;;7.37;;
11504;SDS011;5809;53.262;10.408;2022-11-20T02:58:52;7.30;;;6.40;;
11504;SDS011;5809;53.262;10.408;2022-11-20T03:01:19;7.33;;;6.43;;
11504;SDS011;5809;53.262;10.408;2022-11-20T03:03:46;8.77;;;6.33;;
11504;SDS011;5809;53.262;10.408;2022-11-20T03:06:14;8.97;;;6.47;;
11504;SDS011;5809;53.262;10.408;2022-11-20T03:08:41;8.33;;;6.73;;
11504;SDS011;5809;53.262;10.408;2022-11-20T03:11:09;6.93;;;6.20;;
11504;SDS011;5809;53.262;10.408;2022-11-20T03:13:36;8.57;;;6.93;;
11504;SDS011;5809;53.262;10.408;2022-11-20T03:16:08;9.23;;;6.63;;
11504;SDS011;5809;53.262;10.408;2022-11-20T03:18:36;7.80;;;6.23;;
11504;SDS011;5809;53.262;10.408;2022-11-20T03:21:03;7.40;;;6.20;;
11504;SDS011;5809;53.262;10.408;2022-11-20T03:23:31;10.97;;;6.50;;
11504;SDS011;5809;53.262;10.408;2022-11-20T03:26:09;8.33;;;7.13;;
11504;SDS011;5809;53.262;10.408;2022-11-20T03:28:36;7.43;;;6.50;;
11504;SDS011;5809;53.262;10.408;2022-11-20T03:31:09;8.20;;;6.60;;
11504;SDS011;5809;53.262;10.408;2022-11-20T03:33:37;8.20;;;7.10;;
11504;SDS011;5809;53.262;10.408;2022-11-20T03:36:06;8.53;;;6.50;;
11504;SDS011;5809;53.262;10.408;2022-11-20T03:38:34;8.80;;;6.03;;
11504;SDS011;5809;53.262;10.408;2022-11-20T03:41:02;7.43;;;6.20;;
11504;SDS011;5809;53.262;10.408;2022-11-20T03:43:29;9.00;;;6.43;;
11504;SDS011;5809;53.262;10.408;2022-11-20T03:45:56;8.50;;;6.17;;
11504;SDS011;5809;53.262;10.408;2022-11-20T03:48:25;9.13;;;6.40;;
11504;SDS011;5809;53.262;10.408;2022-11-20T03:50:53;6.63;;;5.93;;
11504;SDS011;5809;53.262;10.408;2022-11-20T03:53:20;6.70;;;5.87;;
11504;SDS011;5809;53.262;10.408;2022-11-20T03:55:50;8.53;;;6.57;;
11504;SDS011;5809;53.262;10.408;2022-11-20T03:58:17;7.23;;;6.10;;
11504;SDS011;5809;53.262;10.408;2022-11-20T04:00:45;10.07;;;6.37;;
11504;SDS011;5809;53.262;10.408;2022-11-20T04:03:12;7.60;;;6.37;;
11504;SDS011;5809;53.262;10.408;2022-11-20T04:05:40;8.63;;;6.40;;
11504;SDS011;5809;53.262;10.408;2022-11-20T04:08:07;8.63;;;5.87;;
11504;SDS011;5809;53.262;10.408;2022-11-20T04:10:34;8.10;;;6.30;;
11504;SDS011;5809;53.262;10.408;2022-11-20T04:13:01;10.03;;;6.30;;
11504;SDS011;5809;53.262;10.408;2022-11-20T04:15:28;7.90;;;6.03;;
11504;SDS011;5809;53.262;10.408;2022-11-20T04:17:55;8.43;;;5.90;;
11504;SDS011;5809;53.262;10.408;2022-11-20T04:20:22;8.33;;;6.13;;
11504;SDS011;5809;53.262;10.408;2022-11-20T04:22:53;7.17;;;5.90;;
11504;SDS011;5809;53.262;10.408;2022-11-20T04:25:21;8.23;;;5.97;;
11504;SDS011;5809;53.262;10.408;2022-11-20T04:27:48;7.67;;;6.03;;
11504;SDS011;5809;53.262;10.408;2022-11-20T04:30:15;8.53;;;6.60;;
11504;SDS011;5809;53.262;10.408;2022-11-20T04:32:42;8.50;;;6.17;;
11504;SDS011;5809;53.262;10.408;2022-11-20T04:35:09;11.50;;;6.43;;
11504;SDS011;5809;53.262;10.408;2022-11-20T04:37:36;8.87;;;6.67;;
11504;SDS011;5809;53.262;10.408;2022-11-20T04:40:05;7.63;;;6.37;;
11504;SDS011;5809;53.262;10.408;2022-11-20T04:42:32;7.67;;;6.83;;
11504;SDS011;5809;53.262;10.408;2022-11-20T04:44:59;7.70;;;6.40;;
11504;SDS011;5809;53.262;10.408;2022-11-20T04:47:27;7.83;;;6.67;;
11504;SDS011;5809;53.262;10.408;2022-11-20T04:49:54;7.90;;;6.30;;
11504;SDS011;5809;53.262;10.408;2022-11-20T04:52:21;9.70;;;6.93;;
11504;SDS011;5809;53.262;10.408;2022-11-20T04:54:48;8.00;;;6.43;;
11504;SDS011;5809;53.262;10.408;2022-11-20T04:57:19;8.37;;;6.20;;
11504;SDS011;5809;53.262;10.408;2022-11-20T04:59:46;9.57;;;6.93;;
11504;SDS011;5809;53.262;10.408;2022-11-20T05:02:13;9.17;;;6.63;;
11504;SDS011;5809;53.262;10.408;2022-11-20T05:04:40;10.40;;;7.27;;
11504;SDS011;5809;53.262;10.408;2022-11-20T05:07:07;10.20;;;7.50;;
11504;SDS011;5809;53.262;10.408;2022-11-20T05:09:34;9.33;;;7.17;;
11504;SDS011;5809;53.262;10.408;2022-11-20T05:12:02;9.50;;;7.10;;
11504;SDS011;5809;53.262;10.408;2022-11-20T05:14:30;8.43;;;6.57;;
11504;SDS011;5809;53.262;10.408;2022-11-20T05:16:57;7.73;;;6.80;;
11504;SDS011;5809;53.262;10.408;2022-11-20T05:19:24;9.63;;;7.00;;
11504;SDS011;5809;53.262;10.408;2022-11-20T05:21:51;10.07;;;6.93;;
11504;SDS011;5809;53.262;10.408;2022-11-20T05:24:18;8.40;;;7.13;;
11504;SDS011;5809;53.262;10.408;2022-11-20T05:26:45;8.20;;;6.63;;
11504;SDS011;5809;53.262;10.408;2022-11-20T05:29:12;10.03;;;7.20;;
11504;SDS011;5809;53.262;10.408;2022-11-20T05:31:41;8.93;;;6.90;;
11504;SDS011;5809;53.262;10.408;2022-11-20T05:34:08;9.83;;;7.13;;
11504;SDS011;5809;53.262;10.408;2022-11-20T05:36:35;8.40;;;7.07;;
11504;SDS011;5809;53.262;10.408;2022-11-20T05:39:02;10.00;;;7.47;;
11504;SDS011;5809;53.262;10.408;2022-11-20T05:41:30;11.00;;;7.77;;
11504;SDS011;5809;53.262;10.408;2022-11-20T05:43:56;10.93;;;7.70;;
11504;SDS011;5809;53.262;10.408;2022-11-20T05:46:24;10.37;;;7.43;;
11504;SDS011;5809;53.262;10.408;2022-11-20T05:48:52;9.97;;;7.70;;
11504;SDS011;5809;53.262;10.408;2022-11-20T05:51:19;9.87;;;7.33;;
11504;SDS011;5809;53.262;10.408;2022-11-20T05:53:46;8.77;;;7.50;;
11504;SDS011;5809;53.262;10.408;2022-11-20T05:56:15;10.23;;;7.87;;
11504;SDS011;5809;53.262;10.408;2022-11-20T05:58:43;11.83;;;8.30;;
11504;SDS011;5809;53.262;10.408;2022-11-20T06:01:12;9.00;;;7.70;;
11504;SDS011;5809;53.262;10.408;2022-11-20T06:03:39;13.63;;;9.00;;
11504;SDS011;5809;53.262;10.408;2022-11-20T06:06:12;10.40;;;8.30;;
11504;SDS011;5809;53.262;10.408;2022-11-20T06:08:39;12.10;;;9.00;;
11504;SDS011;5809;53.262;10.408;2022-11-20T06:11:08;12.53;;;9.60;;
11504;SDS011;5809;53.262;10.408;2022-11-20T06:13:35;11.07;;;9.37;;
11504;SDS011;5809;53.262;10.408;2022-11-20T06:16:02;13.23;;;9.73;;
11504;SDS011;5809;53.262;10.408;2022-11-20T06:18:30;11.87;;;9.87;;
11504;SDS011;5809;53.262;10.408;2022-11-20T06:21:01;13.23;;;10.63;;
11504;SDS011;5809;53.262;10.408;2022-11-20T06:23:30;15.03;;;10.63;;
11504;SDS011;5809;53.262;10.408;2022-11-20T06:25:58;13.60;;;11.13;;
11504;SDS011;5809;53.262;10.408;2022-11-20T06:28:27;13.43;;;11.53;;
11504;SDS011;5809;53.262;10.408;2022-11-20T06:30:55;13.60;;;11.50;;
11504;SDS011;5809;53.262;10.408;2022-11-20T06:33:23;17.90;;;11.27;;
11504;SDS011;5809;53.262;10.408;2022-11-20T06:35:50;13.57;;;11.53;;
11504;SDS011;5809;53.262;10.408;2022-11-20T06:38:17;13.53;;;10.93;;
11504;SDS011;5809;53.262;10.408;2022-11-20T06:40:45;14.23;;;11.80;;
11504;SDS011;5809;53.262;10.408;2022-11-20T06:43:12;14.97;;;11.63;;
11504;SDS011;5809;53.262;10.408;2022-11-20T06:45:39;16.87;;;11.90;;
11504;SDS011;5809;53.262;10.408;2022-11-20T06:48:06;14.87;;;11.43;;
11504;SDS011;5809;53.262;10.408;2022-11-20T06:50:34;16.20;;;11.73;;
11504;SDS011;5809;53.262;10.408;2022-11-20T06:53:03;14.37;;;11.70;;
11504;SDS011;5809;53.262;10.408;2022-11-20T06:55:31;16.23;;;11.93;;
11504;SDS011;5809;53.262;10.408;2022-11-20T06:57:59;15.57;;;12.43;;
11504;SDS011;5809;53.262;10.408;2022-11-20T07:00:26;14.70;;;12.00;;
11504;SDS011;5809;53.262;10.408;2022-11-20T07:02:53;17.23;;;12.60;;
11504;SDS011;5809;53.262;10.408;2022-11-20T07:05:20;14.83;;;12.73;;
11504;SDS011;5809;53.262;10.408;2022-11-20T07:07:48;15.57;;;13.20;;
11504;SDS011;5809;53.262;10.408;2022-11-20T07:10:15;17.47;;;13.33;;
11504;SDS011;5809;53.262;10.408;2022-11-20T07:12:42;18.67;;;12.27;;
11504;SDS011;5809;53.262;10.408;2022-11-20T07:15:10;15.63;;;12.80;;
11504;SDS011;5809;53.262;10.408;2022-11-20T07:17:38;17.20;;;12.67;;
11504;SDS011;5809;53.262;10.408;2022-11-20T07:20:05;14.80;;;11.83;;
11504;SDS011;5809;53.262;10.408;2022-11-20T07:22:32;15.10;;;12.50;;
11504;SDS011;5809;53.262;10.408;2022-11-20T07:24:59;14.20;;;11.67;;
11504;SDS011;5809;53.262;10.408;2022-11-20T07:27:26;17.23;;;12.53;;
11504;SDS011;5809;53.262;10.408;2022-11-20T07:29:54;20.73;;;12.60;;
11504;SDS011;5809;53.262;10.408;2022-11-20T07:32:22;18.17;;;13.17;;
11504;SDS011;5809;53.262;10.408;2022-11-20T07:34:49;15.20;;;11.77;;
11504;SDS011;5809;53.262;10.408;2022-11-20T07:37:16;15.67;;;11.83;;
11504;SDS011;5809;53.262;10.408;2022-11-20T07:39:44;15.40;;;12.13;;
11504;SDS011;5809;53.262;10.408;2022-11-20T07:42:11;16.93;;;12.90;;
11504;SDS011;5809;53.262;10.408;2022-11-20T07:44:38;17.80;;;12.83;;
11504;SDS011;5809;53.262;10.408;2022-11-20T07:47:05;15.37;;;12.07;;
11504;SDS011;5809;53.262;10.408;2022-11-20T07:49:33;17.00;;;13.17;;
11504;SDS011;5809;53.262;10.408;2022-11-20T07:52:00;15.50;;;12.20;;
11504;SDS011;5809;53.262;10.408;2022-11-20T07:54:27;18.53;;;13.07;;
11504;SDS011;5809;53.262;10.408;2022-11-20T07:56:54;15.97;;;12.97;;
11504;SDS011;5809;53.262;10.408;2022-11-20T07:59:21;17.50;;;12.87;;
11504;SDS011;5809;53.262;10.408;2022-11-20T08:01:48;15.60;;;12.53;;
11504;SDS011;5809;53.262;10.408;2022-11-20T08:04:15;14.70;;;11.87;;
11504;SDS011;5809;53.262;10.408;2022-11-20T08:06:44;15.17;;;12.00;;
11504;SDS011;5809;53.262;10.408;2022-11-20T08:09:11;13.97;;;11.30;;
11504;SDS011;5809;53.262;10.408;2022-11-20T08:11:38;14.57;;;10.77;;
11504;SDS011;5809;53.262;10.408;2022-11-20T08:14:23;13.57;;;11.13;;
11504;SDS011;5809;53.262;10.408;2022-11-20T08:16:52;13.87;;;11.17;;
11504;SDS011;5809;53.262;10.408;2022-11-20T08:19:19;11.20;;;9.93;;
11504;SDS011;5809;53.262;10.408;2022-11-20T08:21:47;12.97;;;9.90;;
11504;SDS011;5809;53.262;10.408;2022-11-20T08:24:14;11.07;;;9.30;;
11504;SDS011;5809;53.262;10.408;2022-11-20T08:26:41;10.57;;;8.50;;
11504;SDS011;5809;53.262;10.408;2022-11-20T08:29:08;9.47;;;7.37;;
11504;SDS011;5809;53.262;10.408;2022-11-20T08:31:36;8.30;;;7.43;;
11504;SDS011;5809;53.262;10.408;2022-11-20T08:34:02;9.07;;;7.17;;
11504;SDS011;5809;53.262;10.408;2022-11-20T08:36:32;8.33;;;6.80;;
11504;SDS011;5809;53.262;10.408;2022-11-20T08:39:01;7.97;;;6.20;;
11504;SDS011;5809;53.262;10.408;2022-11-20T08:41:29;11.10;;;6.83;;
11504;SDS011;5809;53.262;10.408;2022-11-20T08:43:59;8.53;;;7.17;;
11504;SDS011;5809;53.262;10.408;2022-11-20T08:46:27;8.87;;;6.90;;
11504;SDS011;5809;53.262;10.408;2022-11-20T08:48:58;9.23;;;7.50;;
11504;SDS011;5809;53.262;10.408;2022-11-20T08:51:25;10.40;;;7.73;;
11504;SDS011;5809;53.262;10.408;2022-11-20T08:53:52;9.23;;;7.53;;
11504;SDS011;5809;53.262;10.408;2022-11-20T08:56:20;8.77;;;7.63;;
11504;SDS011;5809;53.262;10.408;2022-11-20T08:58:47;9.40;;;7.80;;
11504;SDS011;5809;53.262;10.408;2022-11-20T09:01:16;8.03;;;6.97;;
11504;SDS011;5809;53.262;10.408;2022-11-20T09:03:43;8.00;;;6.70;;
11504;SDS011;5809;53.262;10.408;2022-11-20T09:06:10;7.63;;;6.73;;
11504;SDS011;5809;53.262;10.408;2022-11-20T09:08:37;7.40;;;6.57;;
11504;SDS011;5809;53.262;10.408;2022-11-20T09:11:04;8.17;;;6.70;;
11504;SDS011;5809;53.262;10.408;2022-11-20T09:13:33;8.60;;;6.87;;
11504;SDS011;5809;53.262;10.408;2022-11-20T09:16:01;7.20;;;6.30;;
11504;SDS011;5809;53.262;10.408;2022-11-20T09:18:30;7.67;;;6.47;;
11504;SDS011;5809;53.262;10.408;2022-11-20T09:20:59;8.43;;;6.80;;
11504;SDS011;5809;53.262;10.408;2022-11-20T09:23:27;8.37;;;6.87;;
11504;SDS011;5809;53.262;10.408;2022-11-20T09:25:57;9.90;;;6.70;;
11504;SDS011;5809;53.262;10.408;2022-11-20T09:28:24;9.83;;;7.90;;
11504;SDS011;5809;53.262;10.408;2022-11-20T09:30:53;11.33;;;8.23;;
11504;SDS011;5809;53.262;10.408;2022-11-20T09:33:20;8.50;;;7.60;;
11504;SDS011;5809;53.262;10.408;2022-11-20T09:35:47;10.13;;;7.77;;
11504;SDS011;5809;53.262;10.408;2022-11-20T09:38:14;8.37;;;7.47;;
11504;SDS011;5809;53.262;10.408;2022-11-20T09:40:43;8.70;;;7.73;;
11504;SDS011;5809;53.262;10.408;2022-11-20T09:43:16;9.10;;;7.60;;
11504;SDS011;5809;53.262;10.408;2022-11-20T09:45:50;10.30;;;8.30;;
11504;SDS011;5809;53.262;10.408;2022-11-20T09:48:29;10.33;;;7.70;;
11504;SDS011;5809;53.262;10.408;2022-11-20T09:51:05;11.60;;;8.57;;
11504;SDS011;5809;53.262;10.408;2022-11-20T09:53:46;10.20;;;9.10;;
11504;SDS011;5809;53.262;10.408;2022-11-20T09:56:21;10.10;;;8.57;;
11504;SDS011;5809;53.262;10.408;2022-11-20T09:58:49;10.53;;;7.83;;
11504;SDS011;5809;53.262;10.408;2022-11-20T10:01:19;10.17;;;7.60;;
11504;SDS011;5809;53.262;10.408;2022-11-20T10:03:52;8.37;;;7.47;;
11504;SDS011;5809;53.262;10.408;2022-11-20T10:06:24;9.53;;;7.30;;
11504;SDS011;5809;53.262;10.408;2022-11-20T10:08:58;9.40;;;7.17;;
11504;SDS011;5809;53.262;10.408;2022-11-20T10:11:35;7.10;;;6.40;;
11504;SDS011;5809;53.262;10.408;2022-11-20T10:14:13;8.50;;;7.23;;
11504;SDS011;5809;53.262;10.408;2022-11-20T10:16:51;8.40;;;6.27;;
11504;SDS011;5809;53.262;10.408;2022-11-20T10:19:29;7.87;;;6.37;;
11504;SDS011;5809;53.262;10.408;2022-11-20T10:22:09;7.43;;;6.63;;
11504;SDS011;5809;53.262;10.408;2022-11-20T10:24:44;9.50;;;6.43;;
11504;SDS011;5809;53.262;10.408;2022-11-20T10:27:29;6.60;;;5.90;;
11504;SDS011;5809;53.262;10.408;2022-11-20T10:30:15;7.93;;;6.00;;
11504;SDS011;5809;53.262;10.408;2022-11-20T10:32:45;6.57;;;5.80;;
11504;SDS011;5809;53.262;10.408;2022-11-20T10:35:16;9.93;;;5.67;;
11504;SDS011;5809;53.262;10.408;2022-11-20T10:37:48;6.93;;;6.23;;
11504;SDS011;5809;53.262;10.408;2022-11-20T10:40:19;8.00;;;6.40;;
11504;SDS011;5809;53.262;10.408;2022-11-20T10:42:50;7.70;;;6.90;;
11504;SDS011;5809;53.262;10.408;2022-11-20T10:45:26;9.20;;;6.80;;
11504;SDS011;5809;53.262;10.408;2022-11-20T10:48:10;9.83;;;7.27;;
11504;SDS011;5809;53.262;10.408;2022-11-20T10:50:57;8.17;;;7.37;;
11504;SDS011;5809;53.262;10.408;2022-11-20T10:53:40;11.07;;;7.03;;
11504;SDS011;5809;53.262;10.408;2022-11-20T10:56:09;9.13;;;6.90;;
11504;SDS011;5809;53.262;10.408;2022-11-20T10:58:43;8.00;;;6.80;;
11504;SDS011;5809;53.262;10.408;2022-11-20T11:01:16;8.33;;;7.07;;
11504;SDS011;5809;53.262;10.408;2022-11-20T11:03:48;7.90;;;6.37;;
11504;SDS011;5809;53.262;10.408;2022-11-20T11:06:18;8.23;;;5.93;;
11504;SDS011;5809;53.262;10.408;2022-11-20T11:08:50;6.60;;;5.30;;
11504;SDS011;5809;53.262;10.408;2022-11-20T11:11:21;7.33;;;5.50;;
11504;SDS011;5809;53.262;10.408;2022-11-20T11:13:49;5.67;;;5.07;;
11504;SDS011;5809;53.262;10.408;2022-11-20T11:16:20;5.93;;;5.30;;
11504;SDS011;5809;53.262;10.408;2022-11-20T11:18:50;7.37;;;5.20;;
11504;SDS011;5809;53.262;10.408;2022-11-20T11:21:21;5.80;;;5.30;;
11504;SDS011;5809;53.262;10.408;2022-11-20T11:23:57;5.97;;;5.20;;
11504;SDS011;5809;53.262;10.408;2022-11-20T11:26:26;5.10;;;4.60;;
11504;SDS011;5809;53.262;10.408;2022-11-20T11:28:54;7.13;;;4.90;;
11504;SDS011;5809;53.262;10.408;2022-11-20T11:31:23;5.27;;;4.77;;
11504;SDS011;5809;53.262;10.408;2022-11-20T11:33:52;5.37;;;4.83;;
11504;SDS011;5809;53.262;10.408;2022-11-20T11:36:20;8.40;;;5.20;;
11504;SDS011;5809;53.262;10.408;2022-11-20T11:38:50;6.77;;;4.90;;
11504;SDS011;5809;53.262;10.408;2022-11-20T11:41:19;7.73;;;5.47;;
11504;SDS011;5809;53.262;10.408;2022-11-20T11:43:51;6.67;;;5.30;;
11504;SDS011;5809;53.262;10.408;2022-11-20T11:46:35;5.97;;;5.10;;
11504;SDS011;5809;53.262;10.408;2022-11-20T11:49:14;5.23;;;4.60;;
11504;SDS011;5809;53.262;10.408;2022-11-20T11:51:56;5.10;;;4.50;;
11504;SDS011;5809;53.262;10.408;2022-11-20T11:54:30;7.50;;;4.53;;
11504;SDS011;5809;53.262;10.408;2022-11-20T11:56:59;5.00;;;4.50;;
11504;SDS011;5809;53.262;10.408;2022-11-20T11:59:33;5.50;;;4.60;;
11504;SDS011;5809;53.262;10.408;2022-11-20T12:02:11;4.53;;;4.13;;
11504;SDS011;5809;53.262;10.408;2022-11-20T12:04:46;6.50;;;4.13;;
11504;SDS011;5809;53.262;10.408;2022-11-20T12:07:22;5.80;;;4.30;;
11504;SDS011;5809;53.262;10.408;2022-11-20T12:09:53;4.30;;;3.90;;
11504;SDS011;5809;53.262;10.408;2022-11-20T12:12:24;5.93;;;4.33;;
11504;SDS011;5809;53.262;10.408;2022-11-20T12:14:54;5.07;;;4.13;;
11504;SDS011;5809;53.262;10.408;2022-11-20T12:17:22;4.50;;;4.10;;
11504;SDS011;5809;53.262;10.408;2022-11-20T12:19:51;3.93;;;3.63;;
11504;SDS011;5809;53.262;10.408;2022-11-20T12:22:20;5.20;;;4.53;;
11504;SDS011;5809;53.262;10.408;2022-11-20T12:24:52;4.60;;;4.10;;
11504;SDS011;5809;53.262;10.408;2022-11-20T12:27:31;5.10;;;4.20;;
11504;SDS011;5809;53.262;10.408;2022-11-20T12:30:06;4.30;;;3.90;;
11504;SDS011;5809;53.262;10.408;2022-11-20T12:41:43;5.57;;;4.87;;
11504;SDS011;5809;53.262;10.408;2022-11-20T12:44:47;5.20;;;4.20;;
11504;SDS011;5809;53.262;10.408;2022-11-20T12:47:34;5.47;;;4.63;;
11504;SDS011;5809;53.262;10.408;2022-11-20T12:50:05;5.47;;;4.90;;
11504;SDS011;5809;53.262;10.408;2022-11-20T12:52:38;5.97;;;5.37;;
11504;SDS011;5809;53.262;10.408;2022-11-20T12:55:16;6.10;;;5.50;;
11504;SDS011;5809;53.262;10.408;2022-11-20T12:57:52;6.40;;;5.27;;
11504;SDS011;5809;53.262;10.408;2022-11-20T13:00:21;5.63;;;5.10;;
11504;SDS011;5809;53.262;10.408;2022-11-20T13:05:59;7.37;;;6.20;;
11504;SDS011;5809;53.262;10.408;2022-11-20T13:08:28;6.13;;;5.53;;
11504;SDS011;5809;53.262;10.408;2022-11-20T13:10:58;5.90;;;4.90;;
11504;SDS011;5809;53.262;10.408;2022-11-20T13:13:33;6.33;;;5.37;;
11504;SDS011;5809;53.262;10.408;2022-11-20T13:16:04;7.37;;;5.67;;
11504;SDS011;5809;53.262;10.408;2022-11-20T13:18:34;6.90;;;5.93;;
11504;SDS011;5809;53.262;10.408;2022-11-20T13:21:12;7.57;;;6.00;;
11504;SDS011;5809;53.262;10.408;2022-11-20T13:23:43;8.67;;;6.60;;
11504;SDS011;5809;53.262;10.408;2022-11-20T13:26:15;8.13;;;7.33;;
11504;SDS011;5809;53.262;10.408;2022-11-20T13:28:44;9.13;;;7.80;;
11504;SDS011;5809;53.262;10.408;2022-11-20T13:31:23;7.73;;;6.80;;
11504;SDS011;5809;53.262;10.408;2022-11-20T13:33:56;6.87;;;6.13;;
11504;SDS011;5809;53.262;10.408;2022-11-20T13:36:25;6.17;;;5.40;;
11504;SDS011;5809;53.262;10.408;2022-11-20T13:38:53;6.00;;;5.40;;
11504;SDS011;5809;53.262;10.408;2022-11-20T13:41:24;5.40;;;4.90;;
11504;SDS011;5809;53.262;10.408;2022-11-20T13:43:59;5.60;;;5.00;;
11504;SDS011;5809;53.262;10.408;2022-11-20T13:46:36;5.77;;;4.67;;
11504;SDS011;5809;53.262;10.408;2022-11-20T13:49:07;5.90;;;5.03;;
11504;SDS011;5809;53.262;10.408;2022-11-20T13:51:37;4.77;;;4.33;;
11504;SDS011;5809;53.262;10.408;2022-11-20T13:54:14;4.10;;;3.70;;
11504;SDS011;5809;53.262;10.408;2022-11-20T13:56:48;4.47;;;4.07;;
11504;SDS011;5809;53.262;10.408;2022-11-20T13:59:26;4.60;;;3.60;;
11504;SDS011;5809;53.262;10.408;2022-11-20T14:01:55;4.27;;;3.87;;
11504;SDS011;5809;53.262;10.408;2022-11-20T14:04:25;5.90;;;4.30;;
11504;SDS011;5809;53.262;10.408;2022-11-20T14:06:55;6.17;;;4.43;;
11504;SDS011;5809;53.262;10.408;2022-11-20T14:09:27;4.37;;;3.77;;
11504;SDS011;5809;53.262;10.408;2022-11-20T14:11:54;4.47;;;4.07;;
11504;SDS011;5809;53.262;10.408;2022-11-20T14:14:22;3.93;;;3.53;;
11504;SDS011;5809;53.262;10.408;2022-11-20T14:16:52;5.17;;;3.70;;
11504;SDS011;5809;53.262;10.408;2022-11-20T14:19:25;4.77;;;3.97;;
11504;SDS011;5809;53.262;10.408;2022-11-20T14:21:53;5.43;;;4.93;;
11504;SDS011;5809;53.262;10.408;2022-11-20T14:24:21;6.83;;;6.07;;
11504;SDS011;5809;53.262;10.408;2022-11-20T14:26:49;7.77;;;5.73;;
11504;SDS011;5809;53.262;10.408;2022-11-20T14:29:17;6.70;;;6.07;;
11504;SDS011;5809;53.262;10.408;2022-11-20T14:31:48;7.67;;;6.90;;
11504;SDS011;5809;53.262;10.408;2022-11-20T14:34:19;6.60;;;5.73;;
11504;SDS011;5809;53.262;10.408;2022-11-20T14:36:46;5.10;;;4.60;;
11504;SDS011;5809;53.262;10.408;2022-11-20T14:39:19;6.83;;;4.30;;
11504;SDS011;5809;53.262;10.408;2022-11-20T14:41:49;5.93;;;4.80;;
11504;SDS011;5809;53.262;10.408;2022-11-20T14:44:17;5.00;;;4.50;;
11504;SDS011;5809;53.262;10.408;2022-11-20T14:46:46;4.83;;;4.30;;
11504;SDS011;5809;53.262;10.408;2022-11-20T14:49:13;4.70;;;4.20;;
11504;SDS011;5809;53.262;10.408;2022-11-20T14:51:42;4.47;;;4.07;;
11504;SDS011;5809;53.262;10.408;2022-11-20T14:54:12;4.47;;;3.87;;
11504;SDS011;5809;53.262;10.408;2022-11-20T14:56:39;4.23;;;3.77;;
11504;SDS011;5809;53.262;10.408;2022-11-20T14:59:06;4.17;;;3.77;;
11504;SDS011;5809;53.262;10.408;2022-11-20T15:01:34;5.10;;;4.30;;
11504;SDS011;5809;53.262;10.408;2022-11-20T15:04:05;4.80;;;4.30;;
11504;SDS011;5809;53.262;10.408;2022-11-20T15:06:33;5.30;;;4.80;;
11504;SDS011;5809;53.262;10.408;2022-11-20T15:09:03;6.23;;;5.10;;